sensor_id;sensor_type;location;lat;lon;timestamp;temperature;humidity
4795;DHT22;2411;47.060;15.064;2023-07-30T00:02:25;15.90;99.90
4795;DHT22;2411;47.060;15.064;2023-07-30T00:04:53;15.80;99.90
4795;DHT22;2411;47.060;15.064;2023-07-30T00:07:20;15.90;99.90
4795;DHT22;2411;47.060;15.064;2023-07-30T00:09:47;15.80;99.90
4795;DHT22;2411;47.060;15.064;2023-07-30T00:12:14;15.90;99.90
4795;DHT22;2411;47.060;15.064;2023-07-30T00:14:41;15.80;99.90
4795;DHT22;2411;47.060;15.064;2023-07-30T00:17:09;15.80;99.90
4795;DHT22;2411;47.060;15.064;2023-07-30T00:19:36;15.80;99.90
4795;DHT22;2411;47.060;15.064;2023-07-30T00:22:04;15.80;99.90
4795;DHT22;2411;47.060;15.064;2023-07-30T00:24:31;15.90;99.90
4795;DHT22;2411;47.060;15.064;2023-07-30T00:26:59;15.80;99.90
4795;DHT22;2411;47.060;15.064;2023-07-30T00:29:26;15.80;99.90
4795;DHT22;2411;47.060;15.064;2023-07-30T00:31:53;15.90;99.90
4795;DHT22;2411;47.060;15.064;2023-07-30T00:34:21;15.90;99.90
4795;DHT22;2411;47.060;15.064;2023-07-30T00:36:48;15.90;99.90
4795;DHT22;2411;47.060;15.064;2023-07-30T00:39:15;15.90;99.90
4795;DHT22;2411;47.060;15.064;2023-07-30T00:41:42;15.90;99.90
4795;DHT22;2411;47.060;15.064;2023-07-30T00:44:10;16.00;99.90
4795;DHT22;2411;47.060;15.064;2023-07-30T00:46:37;16.00;99.90
4795;DHT22;2411;47.060;15.064;2023-07-30T00:49:04;16.00;99.90
4795;DHT22;2411;47.060;15.064;2023-07-30T00:51:33;15.90;99.90
4795;DHT22;2411;47.060;15.064;2023-07-30T00:54:01;16.00;99.90
4795;DHT22;2411;47.060;15.064;2023-07-30T00:56:28;15.90;99.90
4795;DHT22;2411;47.060;15.064;2023-07-30T00:58:57;15.80;99.90
4795;DHT22;2411;47.060;15.064;2023-07-30T01:01:24;15.80;99.90
4795;DHT22;2411;47.060;15.064;2023-07-30T01:03:51;15.80;99.90
4795;DHT22;2411;47.060;15.064;2023-07-30T01:06:19;15.80;99.90
4795;DHT22;2411;47.060;15.064;2023-07-30T01:08:48;15.80;99.90
4795;DHT22;2411;47.060;15.064;2023-07-30T01:11:15;15.80;99.90
4795;DHT22;2411;47.060;15.064;2023-07-30T01:13:43;16.00;99.90
4795;DHT22;2411;47.060;15.064;2023-07-30T01:16:14;15.80;99.90
4795;DHT22;2411;47.060;15.064;2023-07-30T01:18:42;15.80;99.90
4795;DHT22;2411;47.060;15.064;2023-07-30T01:21:09;15.80;99.90
4795;DHT22;2411;47.060;15.064;2023-07-30T01:23:36;15.90;99.90
4795;DHT22;2411;47.060;15.064;2023-07-30T01:26:22;15.90;99.90
4795;DHT22;2411;47.060;15.064;2023-07-30T01:28:54;15.90;99.90
4795;DHT22;2411;47.060;15.064;2023-07-30T01:31:25;15.80;99.90
4795;DHT22;2411;47.060;15.064;2023-07-30T01:33:55;15.80;99.90
4795;DHT22;2411;47.060;15.064;2023-07-30T01:36:23;15.90;99.90
4795;DHT22;2411;47.060;15.064;2023-07-30T01:38:52;15.80;99.90
4795;DHT22;2411;47.060;15.064;2023-07-30T01:41:19;15.80;99.90
4795;DHT22;2411;47.060;15.064;2023-07-30T01:43:48;15.80;99.90
4795;DHT22;2411;47.060;15.064;2023-07-30T01:46:15;15.80;99.90
4795;DHT22;2411;47.060;15.064;2023-07-30T01:48:42;15.70;99.90
4795;DHT22;2411;47.060;15.064;2023-07-30T01:51:10;15.70;99.90
4795;DHT22;2411;47.060;15.064;2023-07-30T01:53:37;15.80;99.90
4795;DHT22;2411;47.060;15.064;2023-07-30T01:56:04;15.80;99.90
4795;DHT22;2411;47.060;15.064;2023-07-30T01:58:31;15.80;99.90
4795;DHT22;2411;47.060;15.064;2023-07-30T02:00:59;15.80;99.90
4795;DHT22;2411;47.060;15.064;2023-07-30T02:03:26;15.80;99.90
4795;DHT22;2411;47.060;15.064;2023-07-30T02:05:55;15.80;99.90
4795;DHT22;2411;47.060;15.064;2023-07-30T02:08:22;15.80;99.90
4795;DHT22;2411;47.060;15.064;2023-07-30T02:10:56;15.90;99.90
4795;DHT22;2411;47.060;15.064;2023-07-30T02:13:24;15.80;99.90
4795;DHT22;2411;47.060;15.064;2023-07-30T02:15:52;15.80;99.90
4795;DHT22;2411;47.060;15.064;2023-07-30T02:18:19;15.80;99.90
4795;DHT22;2411;47.060;15.064;2023-07-30T02:20:47;15.80;99.90
4795;DHT22;2411;47.060;15.064;2023-07-30T02:23:15;15.80;99.90
4795;DHT22;2411;47.060;15.064;2023-07-30T02:25:45;15.80;99.90
4795;DHT22;2411;47.060;15.064;2023-07-30T02:28:12;15.80;99.90
4795;DHT22;2411;47.060;15.064;2023-07-30T02:30:41;15.80;99.90
4795;DHT22;2411;47.060;15.064;2023-07-30T02:33:08;15.90;99.90
4795;DHT22;2411;47.060;15.064;2023-07-30T02:35:36;15.90;99.90
4795;DHT22;2411;47.060;15.064;2023-07-30T02:38:03;15.90;99.90
4795;DHT22;2411;47.060;15.064;2023-07-30T02:40:31;15.90;99.90
4795;DHT22;2411;47.060;15.064;2023-07-30T02:42:58;15.90;99.90
4795;DHT22;2411;47.060;15.064;2023-07-30T02:45:25;16.00;99.90
4795;DHT22;2411;47.060;15.064;2023-07-30T02:47:53;15.90;99.90
4795;DHT22;2411;47.060;15.064;2023-07-30T02:50:20;15.80;99.90
4795;DHT22;2411;47.060;15.064;2023-07-30T02:52:48;15.90;99.90
4795;DHT22;2411;47.060;15.064;2023-07-30T02:55:15;15.90;99.90
4795;DHT22;2411;47.060;15.064;2023-07-30T02:57:43;15.90;99.90
4795;DHT22;2411;47.060;15.064;2023-07-30T03:00:10;15.90;99.90
4795;DHT22;2411;47.060;15.064;2023-07-30T03:02:38;15.90;99.90
4795;DHT22;2411;47.060;15.064;2023-07-30T03:05:05;15.90;99.90
4795;DHT22;2411;47.060;15.064;2023-07-30T03:07:33;15.90;99.90
4795;DHT22;2411;47.060;15.064;2023-07-30T03:10:00;15.90;99.90
4795;DHT22;2411;47.060;15.064;2023-07-30T03:12:27;15.80;99.90
4795;DHT22;2411;47.060;15.064;2023-07-30T03:14:55;15.80;99.90
4795;DHT22;2411;47.060;15.064;2023-07-30T03:17:22;15.80;99.90
4795;DHT22;2411;47.060;15.064;2023-07-30T03:19:50;15.80;99.90
4795;DHT22;2411;47.060;15.064;2023-07-30T03:22:17;15.80;99.90
4795;DHT22;2411;47.060;15.064;2023-07-30T03:24:46;15.80;99.90
4795;DHT22;2411;47.060;15.064;2023-07-30T03:27:14;15.80;99.90
4795;DHT22;2411;47.060;15.064;2023-07-30T03:29:41;15.90;99.90
4795;DHT22;2411;47.060;15.064;2023-07-30T03:32:09;15.80;99.90
4795;DHT22;2411;47.060;15.064;2023-07-30T03:34:36;15.80;99.90
4795;DHT22;2411;47.060;15.064;2023-07-30T03:37:03;15.80;99.90
4795;DHT22;2411;47.060;15.064;2023-07-30T03:39:31;15.80;99.90
4795;DHT22;2411;47.060;15.064;2023-07-30T03:41:58;15.90;99.90
4795;DHT22;2411;47.060;15.064;2023-07-30T03:44:25;15.90;99.90
4795;DHT22;2411;47.060;15.064;2023-07-30T03:46:52;15.80;99.90
4795;DHT22;2411;47.060;15.064;2023-07-30T03:49:20;15.80;99.90
4795;DHT22;2411;47.060;15.064;2023-07-30T03:51:47;15.80;99.90
4795;DHT22;2411;47.060;15.064;2023-07-30T03:54:14;15.90;99.90
4795;DHT22;2411;47.060;15.064;2023-07-30T03:56:42;15.90;99.90
4795;DHT22;2411;47.060;15.064;2023-07-30T03:59:09;15.90;99.90
4795;DHT22;2411;47.060;15.064;2023-07-30T04:01:36;15.80;99.90
4795;DHT22;2411;47.060;15.064;2023-07-30T04:04:04;15.80;99.90
4795;DHT22;2411;47.060;15.064;2023-07-30T04:06:31;15.80;99.90
4795;DHT22;2411;47.060;15.064;2023-07-30T04:08:58;15.80;99.90
4795;DHT22;2411;47.060;15.064;2023-07-30T04:11:25;15.80;99.90
4795;DHT22;2411;47.060;15.064;2023-07-30T04:13:53;15.80;94.90
4795;DHT22;2411;47.060;15.064;2023-07-30T04:16:20;15.80;56.40
4795;DHT22;2411;47.060;15.064;2023-07-30T04:18:47;15.80;32.20
4795;DHT22;2411;47.060;15.064;2023-07-30T04:21:15;15.80;5.60
4795;DHT22;2411;47.060;15.064;2023-07-30T04:23:42;15.80;1.00
4795;DHT22;2411;47.060;15.064;2023-07-30T04:26:10;15.80;1.00
4795;DHT22;2411;47.060;15.064;2023-07-30T04:28:37;15.80;1.00
4795;DHT22;2411;47.060;15.064;2023-07-30T04:31:04;15.80;1.00
4795;DHT22;2411;47.060;15.064;2023-07-30T04:33:31;15.80;1.00
4795;DHT22;2411;47.060;15.064;2023-07-30T04:35:59;15.90;1.30
4795;DHT22;2411;47.060;15.064;2023-07-30T04:38:26;15.90;8.20
4795;DHT22;2411;47.060;15.064;2023-07-30T04:40:53;15.90;12.00
4795;DHT22;2411;47.060;15.064;2023-07-30T04:43:20;15.90;11.20
4795;DHT22;2411;47.060;15.064;2023-07-30T04:45:48;15.90;8.60
4795;DHT22;2411;47.060;15.064;2023-07-30T04:48:15;15.80;1.00
4795;DHT22;2411;47.060;15.064;2023-07-30T04:50:42;15.80;1.00
4795;DHT22;2411;47.060;15.064;2023-07-30T04:53:10;15.80;1.00
4795;DHT22;2411;47.060;15.064;2023-07-30T04:55:37;15.80;1.00
4795;DHT22;2411;47.060;15.064;2023-07-30T04:58:04;15.80;1.00
4795;DHT22;2411;47.060;15.064;2023-07-30T05:00:32;15.90;1.00
4795;DHT22;2411;47.060;15.064;2023-07-30T05:02:59;15.90;1.00
4795;DHT22;2411;47.060;15.064;2023-07-30T05:05:26;15.90;1.00
4795;DHT22;2411;47.060;15.064;2023-07-30T05:07:53;16.00;1.00
4795;DHT22;2411;47.060;15.064;2023-07-30T05:10:21;16.00;1.00
4795;DHT22;2411;47.060;15.064;2023-07-30T05:12:48;15.90;4.10
4795;DHT22;2411;47.060;15.064;2023-07-30T05:15:16;15.90;15.00
4795;DHT22;2411;47.060;15.064;2023-07-30T05:17:43;16.00;18.90
4795;DHT22;2411;47.060;15.064;2023-07-30T05:20:10;16.00;10.60
4795;DHT22;2411;47.060;15.064;2023-07-30T05:22:38;16.00;1.00
4795;DHT22;2411;47.060;15.064;2023-07-30T05:25:05;16.00;14.90
4795;DHT22;2411;47.060;15.064;2023-07-30T05:27:33;16.10;3.00
4795;DHT22;2411;47.060;15.064;2023-07-30T05:30:00;16.10;1.00
4795;DHT22;2411;47.060;15.064;2023-07-30T05:32:27;16.10;10.70
4795;DHT22;2411;47.060;15.064;2023-07-30T05:34:55;16.10;20.10
4795;DHT22;2411;47.060;15.064;2023-07-30T05:37:24;16.10;25.10
4795;DHT22;2411;47.060;15.064;2023-07-30T05:39:52;16.20;29.50
4795;DHT22;2411;47.060;15.064;2023-07-30T05:42:19;16.10;23.70
4795;DHT22;2411;47.060;15.064;2023-07-30T05:44:46;16.10;1.00
4795;DHT22;2411;47.060;15.064;2023-07-30T05:47:14;16.10;1.00
4795;DHT22;2411;47.060;15.064;2023-07-30T05:49:41;16.20;1.00
4795;DHT22;2411;47.060;15.064;2023-07-30T05:52:08;16.20;1.00
4795;DHT22;2411;47.060;15.064;2023-07-30T05:54:35;16.20;1.00
4795;DHT22;2411;47.060;15.064;2023-07-30T05:57:03;16.30;1.00
4795;DHT22;2411;47.060;15.064;2023-07-30T05:59:30;16.40;1.00
4795;DHT22;2411;47.060;15.064;2023-07-30T06:02:02;16.40;1.00
4795;DHT22;2411;47.060;15.064;2023-07-30T06:04:30;16.40;1.00
4795;DHT22;2411;47.060;15.064;2023-07-30T06:07:02;16.40;1.00
4795;DHT22;2411;47.060;15.064;2023-07-30T06:09:30;16.50;1.00
4795;DHT22;2411;47.060;15.064;2023-07-30T06:11:57;16.50;1.00
4795;DHT22;2411;47.060;15.064;2023-07-30T06:14:25;16.60;27.70
4795;DHT22;2411;47.060;15.064;2023-07-30T06:16:53;16.60;73.90
4795;DHT22;2411;47.060;15.064;2023-07-30T06:19:21;16.60;6.40
4795;DHT22;2411;47.060;15.064;2023-07-30T06:21:48;16.70;7.40
4795;DHT22;2411;47.060;15.064;2023-07-30T06:24:15;16.70;2.60
4795;DHT22;2411;47.060;15.064;2023-07-30T06:26:43;16.70;15.70
4795;DHT22;2411;47.060;15.064;2023-07-30T06:29:10;16.70;1.00
4795;DHT22;2411;47.060;15.064;2023-07-30T06:31:37;16.80;1.00
4795;DHT22;2411;47.060;15.064;2023-07-30T06:34:05;16.90;4.10
4795;DHT22;2411;47.060;15.064;2023-07-30T06:36:33;17.00;1.00
4795;DHT22;2411;47.060;15.064;2023-07-30T06:39:00;17.10;51.70
4795;DHT22;2411;47.060;15.064;2023-07-30T06:41:28;17.20;1.00
4795;DHT22;2411;47.060;15.064;2023-07-30T06:43:55;17.20;1.00
4795;DHT22;2411;47.060;15.064;2023-07-30T06:46:22;17.30;99.90
4795;DHT22;2411;47.060;15.064;2023-07-30T06:48:50;17.30;1.00
4795;DHT22;2411;47.060;15.064;2023-07-30T06:51:24;17.50;1.00
4795;DHT22;2411;47.060;15.064;2023-07-30T06:53:52;17.60;24.60
4795;DHT22;2411;47.060;15.064;2023-07-30T06:56:19;17.70;99.90
4795;DHT22;2411;47.060;15.064;2023-07-30T06:58:46;17.80;1.00
4795;DHT22;2411;47.060;15.064;2023-07-30T07:01:14;18.00;1.00
4795;DHT22;2411;47.060;15.064;2023-07-30T07:03:41;17.90;99.90
4795;DHT22;2411;47.060;15.064;2023-07-30T07:06:08;18.00;99.90
4795;DHT22;2411;47.060;15.064;2023-07-30T07:08:36;18.20;1.00
4795;DHT22;2411;47.060;15.064;2023-07-30T07:11:04;18.50;1.00
4795;DHT22;2411;47.060;15.064;2023-07-30T07:13:31;18.60;99.90
4795;DHT22;2411;47.060;15.064;2023-07-30T07:15:59;18.70;1.00
4795;DHT22;2411;47.060;15.064;2023-07-30T07:18:26;18.60;99.90
4795;DHT22;2411;47.060;15.064;2023-07-30T07:20:53;18.60;99.90
4795;DHT22;2411;47.060;15.064;2023-07-30T07:23:21;18.60;99.90
4795;DHT22;2411;47.060;15.064;2023-07-30T07:25:48;18.80;1.00
4795;DHT22;2411;47.060;15.064;2023-07-30T07:28:15;18.90;99.90
4795;DHT22;2411;47.060;15.064;2023-07-30T07:30:43;18.90;99.90
4795;DHT22;2411;47.060;15.064;2023-07-30T07:33:11;19.10;1.00
4795;DHT22;2411;47.060;15.064;2023-07-30T07:35:40;19.10;99.90
4795;DHT22;2411;47.060;15.064;2023-07-30T07:38:07;19.10;99.90
4795;DHT22;2411;47.060;15.064;2023-07-30T07:40:38;19.20;99.90
4795;DHT22;2411;47.060;15.064;2023-07-30T07:43:08;19.30;99.90
4795;DHT22;2411;47.060;15.064;2023-07-30T07:45:36;19.40;99.90
4795;DHT22;2411;47.060;15.064;2023-07-30T07:48:03;19.50;99.90
4795;DHT22;2411;47.060;15.064;2023-07-30T07:50:31;19.50;99.90
4795;DHT22;2411;47.060;15.064;2023-07-30T07:52:58;19.80;99.90
4795;DHT22;2411;47.060;15.064;2023-07-30T07:55:25;20.20;99.90
4795;DHT22;2411;47.060;15.064;2023-07-30T07:57:52;20.00;99.90
4795;DHT22;2411;47.060;15.064;2023-07-30T08:00:20;20.20;59.90
4795;DHT22;2411;47.060;15.064;2023-07-30T08:02:47;20.40;76.40
4795;DHT22;2411;47.060;15.064;2023-07-30T08:05:17;20.40;94.60
4795;DHT22;2411;47.060;15.064;2023-07-30T08:07:47;20.60;99.90
4795;DHT22;2411;47.060;15.064;2023-07-30T08:10:14;20.80;99.90
4795;DHT22;2411;47.060;15.064;2023-07-30T08:12:42;20.70;81.20
4795;DHT22;2411;47.060;15.064;2023-07-30T08:15:10;20.50;70.80
4795;DHT22;2411;47.060;15.064;2023-07-30T08:17:37;20.70;99.90
4795;DHT22;2411;47.060;15.064;2023-07-30T08:20:05;20.50;99.90
4795;DHT22;2411;47.060;15.064;2023-07-30T08:22:33;20.30;90.80
4795;DHT22;2411;47.060;15.064;2023-07-30T08:25:01;20.30;99.90
4795;DHT22;2411;47.060;15.064;2023-07-30T08:27:28;20.30;99.90
4795;DHT22;2411;47.060;15.064;2023-07-30T08:29:55;20.40;99.90
4795;DHT22;2411;47.060;15.064;2023-07-30T08:32:23;20.50;80.40
4795;DHT22;2411;47.060;15.064;2023-07-30T08:34:50;20.40;67.10
4795;DHT22;2411;47.060;15.064;2023-07-30T08:37:17;20.80;99.90
4795;DHT22;2411;47.060;15.064;2023-07-30T08:39:44;21.00;65.20
4795;DHT22;2411;47.060;15.064;2023-07-30T08:42:18;21.10;57.60
4795;DHT22;2411;47.060;15.064;2023-07-30T08:44:46;21.00;19.40
4795;DHT22;2411;47.060;15.064;2023-07-30T08:47:13;20.90;12.50
4795;DHT22;2411;47.060;15.064;2023-07-30T08:49:41;21.10;27.50
4795;DHT22;2411;47.060;15.064;2023-07-30T08:52:09;21.30;13.50
4795;DHT22;2411;47.060;15.064;2023-07-30T08:54:38;21.70;17.90
4795;DHT22;2411;47.060;15.064;2023-07-30T08:57:07;21.90;1.00
4795;DHT22;2411;47.060;15.064;2023-07-30T08:59:41;21.90;1.00
4795;DHT22;2411;47.060;15.064;2023-07-30T09:02:13;22.20;1.00
4795;DHT22;2411;47.060;15.064;2023-07-30T09:04:47;22.20;1.00
4795;DHT22;2411;47.060;15.064;2023-07-30T09:07:16;22.20;1.00
4795;DHT22;2411;47.060;15.064;2023-07-30T09:09:44;22.30;1.00
4795;DHT22;2411;47.060;15.064;2023-07-30T09:12:14;22.10;1.00
4795;DHT22;2411;47.060;15.064;2023-07-30T09:14:42;21.70;1.00
4795;DHT22;2411;47.060;15.064;2023-07-30T09:17:19;21.90;1.00
4795;DHT22;2411;47.060;15.064;2023-07-30T09:19:46;21.70;2.10
4795;DHT22;2411;47.060;15.064;2023-07-30T09:22:29;21.70;1.00
4795;DHT22;2411;47.060;15.064;2023-07-30T09:24:57;21.60;1.00
4795;DHT22;2411;47.060;15.064;2023-07-30T09:27:25;21.60;1.00
4795;DHT22;2411;47.060;15.064;2023-07-30T09:29:55;21.50;1.00
4795;DHT22;2411;47.060;15.064;2023-07-30T09:32:31;21.60;1.00
4795;DHT22;2411;47.060;15.064;2023-07-30T09:35:09;22.00;7.90
4795;DHT22;2411;47.060;15.064;2023-07-30T09:37:39;22.10;3.60
4795;DHT22;2411;47.060;15.064;2023-07-30T09:40:12;22.10;1.00
4795;DHT22;2411;47.060;15.064;2023-07-30T09:42:44;22.00;1.00
4795;DHT22;2411;47.060;15.064;2023-07-30T09:45:23;22.10;6.10
4795;DHT22;2411;47.060;15.064;2023-07-30T09:47:52;22.20;1.00
4795;DHT22;2411;47.060;15.064;2023-07-30T09:50:20;22.30;1.00
4795;DHT22;2411;47.060;15.064;2023-07-30T09:52:49;22.50;1.00
4795;DHT22;2411;47.060;15.064;2023-07-30T09:55:16;22.70;1.00
4795;DHT22;2411;47.060;15.064;2023-07-30T09:57:46;22.70;1.00
4795;DHT22;2411;47.060;15.064;2023-07-30T10:00:13;22.80;1.00
4795;DHT22;2411;47.060;15.064;2023-07-30T10:02:46;22.80;1.00
4795;DHT22;2411;47.060;15.064;2023-07-30T10:05:20;22.70;1.00
4795;DHT22;2411;47.060;15.064;2023-07-30T10:07:57;23.20;1.00
4795;DHT22;2411;47.060;15.064;2023-07-30T10:10:28;23.60;1.00
4795;DHT22;2411;47.060;15.064;2023-07-30T10:13:00;23.70;1.00
4795;DHT22;2411;47.060;15.064;2023-07-30T10:15:43;23.70;1.00
4795;DHT22;2411;47.060;15.064;2023-07-30T10:18:10;23.80;1.00
4795;DHT22;2411;47.060;15.064;2023-07-30T10:20:38;24.10;1.00
4795;DHT22;2411;47.060;15.064;2023-07-30T10:23:05;24.40;1.00
4795;DHT22;2411;47.060;15.064;2023-07-30T10:25:49;24.50;1.00
4795;DHT22;2411;47.060;15.064;2023-07-30T10:28:46;24.70;1.00
4795;DHT22;2411;47.060;15.064;2023-07-30T10:31:13;24.70;1.00
4795;DHT22;2411;47.060;15.064;2023-07-30T10:33:52;24.60;1.00
4795;DHT22;2411;47.060;15.064;2023-07-30T10:36:33;24.60;1.00
4795;DHT22;2411;47.060;15.064;2023-07-30T10:39:11;24.90;1.00
4795;DHT22;2411;47.060;15.064;2023-07-30T10:41:39;24.90;1.00
4795;DHT22;2411;47.060;15.064;2023-07-30T10:46:55;25.50;1.00
4795;DHT22;2411;47.060;15.064;2023-07-30T10:49:23;25.80;1.00
4795;DHT22;2411;47.060;15.064;2023-07-30T10:51:55;26.00;1.00
4795;DHT22;2411;47.060;15.064;2023-07-30T10:54:23;26.00;1.00
4795;DHT22;2411;47.060;15.064;2023-07-30T10:56:51;26.40;1.00
4795;DHT22;2411;47.060;15.064;2023-07-30T10:59:19;26.70;1.00
4795;DHT22;2411;47.060;15.064;2023-07-30T11:01:46;26.80;1.00
4795;DHT22;2411;47.060;15.064;2023-07-30T11:04:20;26.90;1.00
4795;DHT22;2411;47.060;15.064;2023-07-30T11:06:49;26.90;1.00
4795;DHT22;2411;47.060;15.064;2023-07-30T11:09:21;26.80;1.00
4795;DHT22;2411;47.060;15.064;2023-07-30T11:11:50;26.70;1.00
4795;DHT22;2411;47.060;15.064;2023-07-30T11:14:24;26.60;1.00
4795;DHT22;2411;47.060;15.064;2023-07-30T11:16:57;26.20;1.00
4795;DHT22;2411;47.060;15.064;2023-07-30T11:19:28;26.40;1.00
4795;DHT22;2411;47.060;15.064;2023-07-30T11:21:57;26.70;1.00
4795;DHT22;2411;47.060;15.064;2023-07-30T11:24:35;27.20;1.00
4795;DHT22;2411;47.060;15.064;2023-07-30T11:27:02;27.00;1.00
4795;DHT22;2411;47.060;15.064;2023-07-30T11:29:30;26.40;1.00
4795;DHT22;2411;47.060;15.064;2023-07-30T11:31:59;26.30;1.00
4795;DHT22;2411;47.060;15.064;2023-07-30T11:34:27;26.40;1.00
4795;DHT22;2411;47.060;15.064;2023-07-30T11:36:55;26.30;1.00
4795;DHT22;2411;47.060;15.064;2023-07-30T11:39:24;26.20;1.00
4795;DHT22;2411;47.060;15.064;2023-07-30T11:41:51;26.10;1.00
4795;DHT22;2411;47.060;15.064;2023-07-30T11:44:35;26.20;1.00
4795;DHT22;2411;47.060;15.064;2023-07-30T11:47:02;26.30;1.00
4795;DHT22;2411;47.060;15.064;2023-07-30T11:49:31;25.90;1.00
4795;DHT22;2411;47.060;15.064;2023-07-30T11:52:09;25.90;1.00
4795;DHT22;2411;47.060;15.064;2023-07-30T11:54:37;26.00;1.00
4795;DHT22;2411;47.060;15.064;2023-07-30T11:57:05;26.20;1.00
4795;DHT22;2411;47.060;15.064;2023-07-30T11:59:32;26.30;1.00
4795;DHT22;2411;47.060;15.064;2023-07-30T12:02:00;26.30;1.00
4795;DHT22;2411;47.060;15.064;2023-07-30T12:04:43;26.40;1.00
4795;DHT22;2411;47.060;15.064;2023-07-30T12:07:11;26.40;1.00
4795;DHT22;2411;47.060;15.064;2023-07-30T12:09:38;26.00;1.00
4795;DHT22;2411;47.060;15.064;2023-07-30T12:12:06;26.20;1.00
4795;DHT22;2411;47.060;15.064;2023-07-30T12:17:15;26.50;1.00
4795;DHT22;2411;47.060;15.064;2023-07-30T12:19:43;26.60;1.00
4795;DHT22;2411;47.060;15.064;2023-07-30T12:22:11;26.60;1.00
4795;DHT22;2411;47.060;15.064;2023-07-30T12:24:38;26.60;1.00
4795;DHT22;2411;47.060;15.064;2023-07-30T12:27:06;26.70;1.00
4795;DHT22;2411;47.060;15.064;2023-07-30T12:29:34;26.90;1.00
4795;DHT22;2411;47.060;15.064;2023-07-30T12:32:01;27.10;1.00
4795;DHT22;2411;47.060;15.064;2023-07-30T12:34:30;27.30;1.00
4795;DHT22;2411;47.060;15.064;2023-07-30T12:36:58;26.70;1.00
4795;DHT22;2411;47.060;15.064;2023-07-30T12:39:26;26.80;1.00
4795;DHT22;2411;47.060;15.064;2023-07-30T12:41:54;26.90;1.00
4795;DHT22;2411;47.060;15.064;2023-07-30T12:44:21;27.00;1.00
4795;DHT22;2411;47.060;15.064;2023-07-30T12:46:49;27.10;1.00
4795;DHT22;2411;47.060;15.064;2023-07-30T12:49:16;27.60;1.00
4795;DHT22;2411;47.060;15.064;2023-07-30T12:51:43;27.50;1.00
4795;DHT22;2411;47.060;15.064;2023-07-30T12:54:11;27.80;1.00
4795;DHT22;2411;47.060;15.064;2023-07-30T12:56:38;27.90;1.00
4795;DHT22;2411;47.060;15.064;2023-07-30T12:59:05;27.70;1.00
4795;DHT22;2411;47.060;15.064;2023-07-30T13:01:32;27.80;1.00
4795;DHT22;2411;47.060;15.064;2023-07-30T13:04:00;28.10;1.00
4795;DHT22;2411;47.060;15.064;2023-07-30T13:06:27;28.00;1.00
4795;DHT22;2411;47.060;15.064;2023-07-30T13:08:54;28.10;1.00
4795;DHT22;2411;47.060;15.064;2023-07-30T13:11:24;28.10;1.00
4795;DHT22;2411;47.060;15.064;2023-07-30T13:13:52;28.20;1.00
4795;DHT22;2411;47.060;15.064;2023-07-30T13:16:19;28.00;1.00
4795;DHT22;2411;47.060;15.064;2023-07-30T13:18:46;28.00;1.00
4795;DHT22;2411;47.060;15.064;2023-07-30T13:21:13;27.80;1.00
4795;DHT22;2411;47.060;15.064;2023-07-30T13:23:41;27.60;1.00
4795;DHT22;2411;47.060;15.064;2023-07-30T13:26:08;27.40;1.00
4795;DHT22;2411;47.060;15.064;2023-07-30T13:28:35;27.10;1.00
4795;DHT22;2411;47.060;15.064;2023-07-30T13:31:02;26.60;1.00
4795;DHT22;2411;47.060;15.064;2023-07-30T13:33:30;26.70;1.00
4795;DHT22;2411;47.060;15.064;2023-07-30T13:35:57;26.60;1.00
4795;DHT22;2411;47.060;15.064;2023-07-30T13:38:24;26.20;1.00
4795;DHT22;2411;47.060;15.064;2023-07-30T13:40:53;26.30;1.00
4795;DHT22;2411;47.060;15.064;2023-07-30T13:43:21;26.20;1.00
4795;DHT22;2411;47.060;15.064;2023-07-30T13:45:48;26.20;1.00
4795;DHT22;2411;47.060;15.064;2023-07-30T13:48:17;26.00;1.00
4795;DHT22;2411;47.060;15.064;2023-07-30T13:50:44;25.90;1.00
4795;DHT22;2411;47.060;15.064;2023-07-30T13:53:12;25.70;1.00
4795;DHT22;2411;47.060;15.064;2023-07-30T13:55:39;25.70;1.00
4795;DHT22;2411;47.060;15.064;2023-07-30T13:58:07;25.90;1.00
4795;DHT22;2411;47.060;15.064;2023-07-30T14:00:35;25.80;1.00
4795;DHT22;2411;47.060;15.064;2023-07-30T14:03:03;25.90;1.00
4795;DHT22;2411;47.060;15.064;2023-07-30T14:05:30;25.90;1.00
4795;DHT22;2411;47.060;15.064;2023-07-30T14:07:57;25.70;1.00
4795;DHT22;2411;47.060;15.064;2023-07-30T14:10:24;25.60;1.00
4795;DHT22;2411;47.060;15.064;2023-07-30T14:12:52;25.50;1.00
4795;DHT22;2411;47.060;15.064;2023-07-30T14:15:19;25.50;1.00
4795;DHT22;2411;47.060;15.064;2023-07-30T14:17:47;25.50;1.00
4795;DHT22;2411;47.060;15.064;2023-07-30T14:20:15;25.30;1.00
4795;DHT22;2411;47.060;15.064;2023-07-30T14:22:42;25.10;1.00
4795;DHT22;2411;47.060;15.064;2023-07-30T14:25:09;25.00;1.00
4795;DHT22;2411;47.060;15.064;2023-07-30T14:27:36;25.10;1.00
4795;DHT22;2411;47.060;15.064;2023-07-30T14:30:04;25.40;1.00
4795;DHT22;2411;47.060;15.064;2023-07-30T14:32:32;25.30;1.00
4795;DHT22;2411;47.060;15.064;2023-07-30T14:34:59;25.30;1.00
4795;DHT22;2411;47.060;15.064;2023-07-30T14:37:26;25.20;1.00
4795;DHT22;2411;47.060;15.064;2023-07-30T14:39:53;25.00;1.00
4795;DHT22;2411;47.060;15.064;2023-07-30T14:42:21;24.80;1.00
4795;DHT22;2411;47.060;15.064;2023-07-30T14:44:48;24.40;1.00
4795;DHT22;2411;47.060;15.064;2023-07-30T14:47:15;24.10;1.00
4795;DHT22;2411;47.060;15.064;2023-07-30T14:49:42;22.90;1.00
4795;DHT22;2411;47.060;15.064;2023-07-30T14:52:10;20.20;1.00
4795;DHT22;2411;47.060;15.064;2023-07-30T14:54:37;20.20;1.00
4795;DHT22;2411;47.060;15.064;2023-07-30T14:57:05;20.60;1.00
4795;DHT22;2411;47.060;15.064;2023-07-30T14:59:33;20.90;1.00
4795;DHT22;2411;47.060;15.064;2023-07-30T15:02:00;20.80;1.00
4795;DHT22;2411;47.060;15.064;2023-07-30T15:04:28;20.80;1.00
4795;DHT22;2411;47.060;15.064;2023-07-30T15:06:57;20.80;1.00
4795;DHT22;2411;47.060;15.064;2023-07-30T15:09:24;20.70;1.00
4795;DHT22;2411;47.060;15.064;2023-07-30T15:11:51;20.70;1.00
4795;DHT22;2411;47.060;15.064;2023-07-30T15:14:19;20.90;1.00
4795;DHT22;2411;47.060;15.064;2023-07-30T15:16:47;21.00;1.00
4795;DHT22;2411;47.060;15.064;2023-07-30T15:19:14;21.10;1.00
4795;DHT22;2411;47.060;15.064;2023-07-30T15:21:41;21.20;1.00
4795;DHT22;2411;47.060;15.064;2023-07-30T15:24:08;21.50;1.00
4795;DHT22;2411;47.060;15.064;2023-07-30T15:26:35;21.90;1.00
4795;DHT22;2411;47.060;15.064;2023-07-30T15:29:03;22.10;1.00
4795;DHT22;2411;47.060;15.064;2023-07-30T15:31:31;22.30;1.00
4795;DHT22;2411;47.060;15.064;2023-07-30T15:33:58;22.40;1.00
4795;DHT22;2411;47.060;15.064;2023-07-30T15:36:26;22.70;1.00
4795;DHT22;2411;47.060;15.064;2023-07-30T15:38:53;23.10;1.00
4795;DHT22;2411;47.060;15.064;2023-07-30T15:41:21;23.40;1.00
4795;DHT22;2411;47.060;15.064;2023-07-30T15:43:49;23.50;1.00
4795;DHT22;2411;47.060;15.064;2023-07-30T15:46:17;23.40;1.00
4795;DHT22;2411;47.060;15.064;2023-07-30T15:48:47;23.50;1.00
4795;DHT22;2411;47.060;15.064;2023-07-30T15:51:15;23.80;1.00
4795;DHT22;2411;47.060;15.064;2023-07-30T15:53:43;23.90;1.00
4795;DHT22;2411;47.060;15.064;2023-07-30T15:56:11;23.80;1.00
4795;DHT22;2411;47.060;15.064;2023-07-30T15:58:38;23.80;1.00
4795;DHT22;2411;47.060;15.064;2023-07-30T16:01:07;23.80;1.00
4795;DHT22;2411;47.060;15.064;2023-07-30T16:03:37;23.60;1.00
4795;DHT22;2411;47.060;15.064;2023-07-30T16:06:06;23.60;1.00
4795;DHT22;2411;47.060;15.064;2023-07-30T16:08:35;23.90;1.00